createdAt,value
2023-01-19T00:01:34.705Z,81.08
2023-01-19T00:04:02.724Z,80.96
2023-01-19T00:06:31.670Z,81.04
2023-01-19T00:08:59.439Z,81.04
2023-01-19T00:11:27.407Z,81.12
2023-01-19T00:13:55.866Z,81.13
2023-01-19T00:16:25.041Z,81.19
2023-01-19T00:18:53.399Z,81.24
2023-01-19T00:21:22.408Z,81.12
2023-01-19T00:23:52.714Z,80.92
2023-01-19T00:26:22.640Z,80.99
2023-01-19T00:28:51.300Z,80.88
2023-01-19T00:31:20.702Z,80.78
2023-01-19T00:33:51.701Z,80.89
2023-01-19T00:36:20.646Z,80.95
2023-01-19T00:38:48.465Z,80.78
2023-01-19T00:41:17.823Z,81.04
2023-01-19T00:43:46.126Z,81.24
2023-01-19T00:46:14.279Z,81.09
2023-01-19T00:48:42.830Z,81.23
2023-01-19T00:51:11.021Z,81.13
2023-01-19T00:53:38.760Z,80.71
2023-01-19T00:56:07.294Z,80.75
2023-01-19T00:58:35.572Z,80.73
2023-01-19T01:01:04.772Z,80.78
2023-01-19T01:03:32.983Z,80.91
2023-01-19T01:06:01.294Z,80.94
2023-01-19T01:08:30.156Z,80.80
2023-01-19T01:10:58.520Z,80.75
2023-01-19T01:13:27.892Z,80.78
2023-01-19T01:15:57.129Z,80.82
2023-01-19T01:18:26.242Z,80.83
2023-01-19T01:21:04.279Z,80.78
2023-01-19T01:23:32.785Z,80.71
2023-01-19T01:26:00.788Z,80.82
2023-01-19T01:28:28.623Z,80.67
2023-01-19T01:30:57.496Z,80.61
2023-01-19T01:33:40.543Z,80.29
2023-01-19T01:36:11.769Z,80.31
2023-01-19T01:38:40.841Z,80.15
2023-01-19T01:41:09.221Z,79.96
2023-01-19T01:43:46.828Z,79.67
2023-01-19T01:46:17.212Z,79.43
2023-01-19T01:49:09.005Z,79.56
2023-01-19T01:51:47.116Z,79.51
2023-01-19T01:54:24.785Z,79.83
2023-01-19T01:56:54.108Z,79.78
2023-01-19T01:59:29.542Z,79.91
2023-01-19T02:02:18.920Z,80.03
2023-01-19T02:04:50.869Z,79.82
2023-01-19T02:07:52.131Z,79.61
2023-01-19T02:10:39.082Z,79.42
2023-01-19T02:13:21.977Z,79.36
2023-01-19T02:15:55.965Z,79.33
2023-01-19T02:18:30.661Z,79.25
2023-01-19T02:21:05.241Z,79.27
2023-01-19T02:23:48.328Z,79.23
2023-01-19T02:26:22.641Z,79.24
2023-01-19T02:28:53.880Z,79.14
2023-01-19T02:31:21.932Z,79.12
2023-01-19T02:33:50.401Z,78.98
2023-01-19T02:36:22.232Z,78.89
2023-01-19T02:38:51.406Z,78.97
2023-01-19T02:41:22.529Z,79.07
2023-01-19T02:43:50.508Z,79.08
2023-01-19T02:46:18.899Z,78.94
2023-01-19T02:48:46.953Z,78.59
2023-01-19T02:51:18.778Z,78.76
2023-01-19T02:54:05.367Z,78.56
2023-01-19T02:56:53.480Z,78.59
2023-01-19T02:59:50.987Z,78.54
2023-01-19T03:02:24.797Z,78.56
2023-01-19T03:05:11.409Z,78.52
2023-01-19T03:08:07.891Z,78.47
2023-01-19T03:10:48.535Z,78.37
2023-01-19T03:13:21.813Z,78.41
2023-01-19T03:15:54.598Z,78.39
2023-01-19T03:18:26.466Z,78.58
2023-01-19T03:20:57.017Z,78.53
2023-01-19T03:23:27.080Z,78.87
2023-01-19T03:25:55.670Z,79.00
2023-01-19T03:28:25.620Z,78.85
2023-01-19T03:30:58.344Z,78.83
2023-01-19T03:33:33.206Z,78.83
2023-01-19T03:36:06.090Z,78.74
2023-01-19T03:38:38.051Z,78.78
2023-01-19T03:41:09.472Z,78.79
2023-01-19T03:43:39.423Z,78.93
2023-01-19T03:46:09.779Z,78.83
2023-01-19T03:48:39.060Z,78.99
2023-01-19T03:51:09.005Z,78.95
2023-01-19T03:53:37.081Z,79.20
2023-01-19T03:56:05.764Z,79.19
2023-01-19T03:58:34.143Z,79.23
2023-01-19T04:01:04.290Z,79.31
2023-01-19T04:03:33.682Z,79.22
2023-01-19T04:06:02.493Z,79.38
2023-01-19T04:08:30.261Z,79.43
2023-01-19T04:10:58.893Z,79.38
2023-01-19T04:13:29.056Z,79.44
2023-01-19T04:16:04.358Z,79.61
2023-01-19T04:18:34.917Z,79.75
2023-01-19T04:21:04.174Z,79.62
2023-01-19T04:23:32.430Z,79.65
2023-01-19T04:26:03.217Z,79.61
2023-01-19T04:28:32.174Z,79.62
2023-01-19T04:30:59.951Z,79.59
2023-01-19T04:33:28.685Z,79.63
2023-01-19T04:35:56.719Z,79.84
2023-01-19T04:38:25.604Z,79.68
2023-01-19T04:40:54.418Z,79.92
2023-01-19T04:43:23.170Z,79.96
2023-01-19T04:45:51.259Z,79.93
2023-01-19T04:48:19.436Z,80.11
2023-01-19T04:50:47.706Z,80.00
2023-01-19T04:53:16.539Z,80.00
2023-01-19T04:55:45.425Z,80.12
2023-01-19T04:58:13.271Z,80.12
2023-01-19T05:00:41.175Z,80.18
2023-01-19T05:03:09.455Z,80.15
2023-01-19T05:05:37.382Z,80.34
2023-01-19T05:08:05.413Z,80.24
2023-01-19T05:10:33.712Z,80.36
2023-01-19T05:13:01.877Z,80.34
2023-01-19T05:15:30.087Z,80.23
2023-01-19T05:17:59.017Z,80.43
2023-01-19T05:20:26.834Z,80.27
2023-01-19T05:22:54.659Z,80.47
2023-01-19T05:25:23.076Z,80.39
2023-01-19T05:27:50.838Z,80.38
2023-01-19T05:30:19.319Z,80.49
2023-01-19T05:32:47.589Z,80.42
2023-01-19T05:35:18.212Z,80.28
2023-01-19T05:37:46.250Z,80.18
2023-01-19T05:40:14.755Z,80.14
2023-01-19T05:42:42.761Z,79.93
2023-01-19T05:45:12.020Z,80.06
2023-01-19T05:47:40.154Z,80.19
2023-01-19T05:50:08.421Z,80.00
2023-01-19T05:52:36.183Z,80.16
2023-01-19T05:55:04.762Z,80.16
2023-01-19T05:57:32.942Z,80.19
2023-01-19T06:00:01.093Z,80.03
2023-01-19T06:02:30.327Z,80.09
2023-01-19T06:04:58.272Z,80.09
2023-01-19T06:07:28.254Z,80.10
2023-01-19T06:09:57.100Z,79.92
2023-01-19T06:12:24.950Z,80.06
2023-01-19T06:14:52.892Z,80.07
2023-01-19T06:17:21.200Z,80.16
2023-01-19T06:19:48.988Z,80.08
2023-01-19T06:22:16.906Z,80.11
2023-01-19T06:24:45.263Z,80.22
2023-01-19T06:27:13.859Z,79.91
2023-01-19T06:29:41.692Z,79.94
2023-01-19T06:32:09.685Z,80.03
2023-01-19T06:34:38.482Z,80.07
2023-01-19T06:37:06.578Z,80.06
2023-01-19T06:39:34.787Z,79.90
2023-01-19T06:42:02.705Z,80.10
2023-01-19T06:44:30.680Z,80.07
2023-01-19T06:47:15.707Z,79.90
2023-01-19T06:49:43.965Z,79.88
2023-01-19T06:52:16.090Z,79.88
2023-01-19T06:54:47.245Z,79.87
2023-01-19T06:57:15.459Z,79.85
2023-01-19T06:59:43.399Z,79.93
2023-01-19T07:02:26.220Z,80.16
2023-01-19T07:04:56.726Z,79.99
2023-01-19T07:07:25.131Z,79.85
2023-01-19T07:09:53.946Z,79.91
2023-01-19T07:12:23.343Z,79.67
2023-01-19T07:14:51.803Z,79.70
2023-01-19T07:17:20.215Z,79.56
2023-01-19T07:19:48.575Z,79.56
2023-01-19T07:22:16.879Z,79.50
2023-01-19T07:24:44.726Z,79.53
2023-01-19T07:27:12.991Z,79.48
2023-01-19T07:29:40.728Z,79.39
2023-01-19T07:32:09.788Z,79.25
2023-01-19T07:34:37.894Z,79.02
2023-01-19T07:37:05.708Z,78.89
2023-01-19T07:39:36.745Z,78.82
2023-01-19T07:42:05.104Z,78.80
2023-01-19T07:44:33.188Z,78.91
2023-01-19T07:47:01.110Z,78.66
2023-01-19T07:49:29.390Z,78.64
2023-01-19T07:51:57.193Z,78.54
2023-01-19T07:54:25.263Z,78.49
2023-01-19T07:56:56.225Z,78.58
2023-01-19T07:59:24.429Z,78.79
2023-01-19T08:01:54.174Z,78.84
2023-01-19T08:04:22.546Z,78.53
2023-01-19T08:06:50.398Z,78.39
2023-01-19T08:09:18.348Z,78.36
2023-01-19T08:11:46.496Z,78.45
2023-01-19T08:14:14.349Z,78.25
2023-01-19T08:16:42.569Z,78.32
2023-01-19T08:19:10.850Z,78.10
2023-01-19T08:21:39.037Z,78.26
2023-01-19T08:24:07.188Z,78.34
2023-01-19T08:26:35.714Z,78.13
2023-01-19T08:29:05.613Z,77.95
2023-01-19T08:31:33.721Z,77.74
2023-01-19T08:34:02.138Z,77.79
2023-01-19T08:36:30.497Z,77.68
2023-01-19T08:38:58.272Z,77.72
2023-01-19T08:41:26.877Z,77.52
2023-01-19T08:43:57.067Z,77.60
2023-01-19T08:46:24.903Z,77.51
2023-01-19T08:48:53.471Z,77.50
2023-01-19T08:51:21.277Z,77.48
2023-01-19T08:53:49.084Z,77.36
2023-01-19T08:56:20.344Z,77.51
2023-01-19T08:58:59.468Z,77.50
2023-01-19T09:01:37.504Z,77.26
2023-01-19T09:04:06.386Z,77.21
2023-01-19T09:06:34.457Z,77.02
2023-01-19T09:09:02.738Z,76.87
2023-01-19T09:11:30.916Z,77.06
2023-01-19T09:13:58.900Z,76.81
2023-01-19T09:16:27.533Z,76.47
2023-01-19T09:18:55.473Z,76.47
2023-01-19T09:21:23.394Z,76.23
2023-01-19T09:23:51.769Z,75.94
2023-01-19T09:26:19.592Z,75.84
2023-01-19T09:28:47.370Z,75.56
2023-01-19T09:31:16.645Z,75.18
2023-01-19T09:33:44.627Z,75.02
2023-01-19T09:36:12.458Z,74.97
2023-01-19T09:38:41.316Z,75.14
2023-01-19T09:41:17.711Z,75.18
2023-01-19T09:43:54.470Z,75.03
2023-01-19T09:46:33.226Z,75.11
2023-01-19T09:49:17.258Z,74.96
2023-01-19T09:51:47.461Z,74.78
2023-01-19T09:54:20.921Z,74.71
2023-01-19T09:56:52.351Z,74.57
2023-01-19T09:59:30.237Z,74.13
2023-01-19T10:01:58.021Z,74.49
2023-01-19T10:04:33.086Z,74.58
2023-01-19T10:07:26.607Z,74.35
2023-01-19T10:10:30.075Z,74.41
2023-01-19T10:13:09.840Z,74.31
2023-01-19T10:15:44.659Z,74.37
2023-01-19T10:18:37.085Z,74.43
2023-01-19T10:21:14.407Z,74.39
2023-01-19T10:23:52.363Z,74.13
2023-01-19T10:26:25.334Z,73.94
2023-01-19T10:28:56.402Z,74.14
2023-01-19T10:31:25.065Z,73.91
2023-01-19T10:33:54.378Z,73.89
2023-01-19T10:36:29.890Z,73.60
2023-01-19T10:38:58.187Z,73.52
2023-01-19T10:41:47.746Z,73.50
2023-01-19T10:44:25.690Z,73.54
2023-01-19T10:46:57.463Z,73.35
2023-01-19T10:49:28.827Z,72.95
2023-01-19T10:51:58.653Z,72.66
2023-01-19T10:54:28.142Z,72.64
2023-01-19T10:57:03.721Z,72.59
2023-01-19T10:59:45.325Z,72.47
2023-01-19T11:02:17.870Z,72.35
2023-01-19T11:04:50.196Z,72.26
2023-01-19T11:07:21.788Z,72.25
2023-01-19T11:09:50.736Z,71.93
2023-01-19T11:12:21.128Z,72.12
2023-01-19T11:14:50.957Z,72.28
2023-01-19T11:17:25.287Z,72.11
2023-01-19T11:19:56.063Z,72.34
2023-01-19T11:22:28.353Z,72.41
2023-01-19T11:25:01.665Z,72.17
2023-01-19T11:27:31.660Z,72.05
2023-01-19T11:30:09.915Z,72.13
2023-01-19T11:32:38.181Z,71.82
2023-01-19T11:35:29.105Z,72.15
2023-01-19T11:38:12.485Z,72.33
2023-01-19T11:40:41.365Z,72.25
2023-01-19T11:43:13.616Z,72.27
2023-01-19T11:45:41.840Z,72.33
2023-01-19T11:48:19.143Z,72.06
2023-01-19T11:50:49.608Z,71.85
2023-01-19T11:53:26.401Z,71.46
2023-01-19T11:56:07.801Z,71.32
2023-01-19T11:58:40.932Z,71.32
2023-01-19T12:01:14.823Z,71.35
2023-01-19T12:03:54.687Z,71.19
2023-01-19T12:06:31.312Z,71.04
2023-01-19T12:09:03.144Z,70.90
2023-01-19T12:11:39.113Z,70.52
2023-01-19T12:14:16.656Z,70.57
2023-01-19T12:16:45.788Z,70.87
2023-01-19T12:19:17.654Z,70.64
2023-01-19T12:21:48.552Z,70.79
2023-01-19T12:24:26.108Z,70.95
2023-01-19T12:26:57.388Z,70.66
2023-01-19T12:29:28.989Z,70.58
2023-01-19T12:32:18.660Z,70.65
2023-01-19T12:34:52.180Z,70.69
2023-01-19T12:37:40.175Z,70.61
2023-01-19T12:40:29.229Z,70.58
2023-01-19T12:43:01.128Z,70.81
2023-01-19T12:45:34.317Z,70.54
2023-01-19T12:48:04.559Z,70.35
2023-01-19T12:50:37.979Z,70.15
2023-01-19T12:53:17.074Z,70.16
2023-01-19T12:55:47.638Z,69.99
2023-01-19T12:58:23.752Z,70.06
2023-01-19T13:01:12.799Z,69.95
2023-01-19T13:03:47.458Z,70.08
2023-01-19T13:06:15.630Z,69.61
2023-01-19T13:08:57.360Z,69.51
2023-01-19T13:11:27.867Z,69.48
2023-01-19T13:14:00.372Z,69.47
2023-01-19T13:16:28.384Z,69.58
2023-01-19T13:18:57.482Z,69.45
2023-01-19T13:21:39.815Z,69.31
2023-01-19T13:24:18.258Z,69.18
2023-01-19T13:26:49.156Z,68.65
2023-01-19T13:29:36.424Z,68.75
2023-01-19T13:32:17.704Z,68.74
2023-01-19T13:34:50.469Z,68.71
2023-01-19T13:37:19.741Z,68.66
2023-01-19T13:39:50.473Z,68.59
2023-01-19T13:42:41.266Z,68.54
2023-01-19T13:45:34.541Z,68.72
2023-01-19T13:48:05.644Z,68.41
2023-01-19T13:50:37.464Z,67.98
2023-01-19T13:53:20.781Z,67.51
2023-01-19T13:55:51.470Z,67.76
2023-01-19T13:58:24.045Z,67.54
2023-01-19T14:00:52.203Z,67.45
2023-01-19T14:03:23.678Z,67.27
2023-01-19T14:05:53.615Z,67.32
2023-01-19T14:08:23.020Z,67.49
2023-01-19T14:10:54.546Z,67.58
2023-01-19T14:13:26.305Z,67.74
2023-01-19T14:15:57.565Z,68.01
2023-01-19T14:18:31.449Z,68.09
2023-01-19T14:21:07.969Z,68.54
2023-01-19T14:24:11.480Z,68.54
2023-01-19T14:26:46.711Z,68.41
2023-01-19T14:29:17.620Z,67.96
2023-01-19T14:32:07.174Z,67.74
2023-01-19T14:34:43.184Z,67.93
2023-01-19T14:37:21.593Z,67.83
2023-01-19T14:39:55.851Z,68.40
2023-01-19T14:42:27.485Z,68.47
2023-01-19T14:44:56.685Z,68.62
2023-01-19T14:47:41.639Z,68.87
2023-01-19T14:50:24.553Z,68.85
2023-01-19T14:52:54.684Z,68.97
2023-01-19T14:56:02.632Z,69.10
2023-01-19T14:58:32.718Z,68.57
2023-01-19T15:01:01.340Z,69.18
2023-01-19T15:03:46.128Z,68.74
2023-01-19T15:06:17.125Z,68.81
2023-01-19T15:08:45.458Z,69.06
2023-01-19T15:11:23.117Z,69.27
2023-01-19T15:13:52.144Z,69.26
2023-01-19T15:16:20.174Z,69.29
2023-01-19T15:18:48.248Z,69.49
2023-01-19T15:21:20.218Z,69.67
2023-01-19T15:23:48.187Z,69.74
2023-01-19T15:26:18.678Z,69.78
2023-01-19T15:28:48.918Z,69.98
2023-01-19T15:31:26.863Z,70.03
2023-01-19T15:33:55.164Z,70.01
2023-01-19T15:36:24.516Z,70.15
2023-01-19T15:38:52.620Z,70.00
2023-01-19T15:41:30.108Z,70.18
2023-01-19T15:43:58.547Z,69.84
2023-01-19T15:46:26.989Z,69.77
2023-01-19T15:48:55.081Z,69.89
2023-01-19T15:51:27.857Z,69.78
2023-01-19T15:53:56.842Z,69.90
2023-01-19T15:56:27.590Z,69.98
2023-01-19T15:58:56.274Z,70.08
2023-01-19T16:01:34.368Z,69.76
2023-01-19T16:04:05.012Z,69.86
2023-01-19T16:06:33.914Z,70.04
2023-01-19T16:09:02.800Z,70.20
2023-01-19T16:11:32.745Z,70.06
2023-01-19T16:14:01.335Z,70.10
2023-01-19T16:16:29.859Z,70.28
2023-01-19T16:18:58.022Z,70.35
2023-01-19T16:21:26.132Z,70.40
2023-01-19T16:23:54.184Z,70.55
2023-01-19T16:26:25.073Z,70.23
2023-01-19T16:28:59.528Z,70.03
2023-01-19T16:31:28.080Z,70.68
2023-01-19T16:33:55.927Z,70.55
2023-01-19T16:36:31.128Z,70.42
2023-01-19T16:39:05.487Z,70.40
2023-01-19T16:41:34.923Z,70.33
2023-01-19T16:44:03.445Z,70.36
2023-01-19T16:46:35.168Z,70.17
2023-01-19T16:49:12.477Z,70.22
2023-01-19T16:51:41.195Z,70.21
2023-01-19T16:54:13.260Z,70.35
2023-01-19T16:56:42.012Z,70.37
2023-01-19T16:59:12.434Z,70.58
2023-01-19T17:01:40.864Z,70.52
2023-01-19T17:04:09.373Z,70.23
2023-01-19T17:06:37.311Z,70.52
2023-01-19T17:09:07.000Z,70.69
2023-01-19T17:11:35.691Z,70.86
2023-01-19T17:14:10.585Z,70.74
2023-01-19T17:16:38.882Z,70.66
2023-01-19T17:19:07.550Z,70.65
2023-01-19T17:21:35.641Z,71.17
2023-01-19T17:24:04.520Z,71.02
2023-01-19T17:26:32.592Z,70.91
2023-01-19T17:29:02.086Z,70.56
2023-01-19T17:31:32.760Z,70.87
2023-01-19T17:34:01.417Z,70.91
2023-01-19T17:36:31.113Z,70.69
2023-01-19T17:39:00.652Z,71.11
2023-01-19T17:41:30.979Z,70.76
2023-01-19T17:44:00.529Z,70.99
2023-01-19T17:46:29.522Z,71.03
2023-01-19T17:49:02.538Z,70.83
2023-01-19T17:51:31.328Z,70.82
2023-01-19T17:53:59.657Z,71.14
2023-01-19T17:56:30.411Z,71.05
2023-01-19T17:58:59.206Z,71.15
2023-01-19T18:01:29.521Z,71.28
2023-01-19T18:03:59.337Z,71.16
2023-01-19T18:06:27.160Z,71.25
2023-01-19T18:08:56.793Z,71.24
2023-01-19T18:11:26.145Z,71.21
2023-01-19T18:13:54.575Z,71.27
2023-01-19T18:16:25.766Z,70.87
2023-01-19T18:18:54.784Z,70.87
2023-01-19T18:21:24.292Z,70.89
2023-01-19T18:23:52.298Z,70.60
2023-01-19T18:26:22.034Z,70.78
2023-01-19T18:28:50.314Z,71.10
2023-01-19T18:31:18.974Z,71.07
2023-01-19T18:33:48.420Z,71.15
2023-01-19T18:36:17.591Z,71.49
2023-01-19T18:38:45.645Z,71.37
2023-01-19T18:41:16.940Z,71.67
2023-01-19T18:43:45.208Z,71.66
2023-01-19T18:46:13.849Z,71.60
2023-01-19T18:48:41.952Z,71.78
2023-01-19T18:51:14.288Z,71.63
2023-01-19T18:53:43.752Z,71.74
2023-01-19T18:56:12.989Z,71.69
2023-01-19T18:58:41.388Z,71.52
2023-01-19T19:01:32.883Z,71.64
2023-01-19T19:04:01.854Z,71.62
2023-01-19T19:06:30.135Z,71.50
2023-01-19T19:08:59.721Z,71.62
2023-01-19T19:11:28.292Z,71.75
2023-01-19T19:13:59.658Z,71.98
2023-01-19T19:16:28.812Z,71.82
2023-01-19T19:18:57.157Z,71.77
2023-01-19T19:21:25.700Z,71.98
2023-01-19T19:23:56.195Z,72.05
2023-01-19T19:26:25.221Z,72.33
2023-01-19T19:28:53.641Z,72.07
2023-01-19T19:31:23.147Z,72.06
2023-01-19T19:33:51.590Z,72.47
2023-01-19T19:36:21.438Z,72.42
2023-01-19T19:38:50.397Z,72.34
2023-01-19T19:41:23.584Z,72.34
2023-01-19T19:43:52.974Z,72.33
2023-01-19T19:46:22.899Z,72.30
2023-01-19T19:48:51.135Z,72.23
2023-01-19T19:51:25.508Z,72.06
2023-01-19T19:53:56.196Z,72.28
2023-01-19T19:56:25.313Z,72.10
2023-01-19T19:58:54.646Z,72.21
2023-01-19T20:01:27.544Z,72.37
2023-01-19T20:03:57.685Z,72.45
2023-01-19T20:06:27.495Z,72.43
2023-01-19T20:08:56.757Z,72.40
2023-01-19T20:11:27.547Z,72.58
2023-01-19T20:13:55.528Z,72.64
2023-01-19T20:16:24.395Z,72.82
2023-01-19T20:18:54.584Z,72.66
2023-01-19T20:21:25.534Z,72.70
2023-01-19T20:23:55.169Z,72.62
2023-01-19T20:26:26.786Z,72.72
2023-01-19T20:28:57.757Z,72.26
2023-01-19T20:31:31.273Z,72.47
2023-01-19T20:34:01.357Z,72.56
2023-01-19T20:36:29.572Z,72.71
2023-01-19T20:38:58.021Z,72.62
2023-01-19T20:41:26.649Z,72.64
2023-01-19T20:43:54.968Z,73.12
2023-01-19T20:46:23.140Z,72.95
2023-01-19T20:48:53.641Z,73.20
2023-01-19T20:51:22.825Z,73.36
2023-01-19T20:53:50.993Z,73.32
2023-01-19T20:56:18.949Z,73.06
2023-01-19T20:58:47.008Z,73.24
2023-01-19T21:01:21.240Z,73.54
2023-01-19T21:03:49.502Z,73.25
2023-01-19T21:06:18.987Z,73.27
2023-01-19T21:08:47.229Z,72.97
2023-01-19T21:11:15.513Z,73.14
2023-01-19T21:13:43.554Z,73.14
2023-01-19T21:16:11.639Z,73.43
2023-01-19T21:18:40.147Z,73.59
2023-01-19T21:21:14.986Z,73.73
2023-01-19T21:23:50.299Z,73.61
2023-01-19T21:26:18.383Z,73.80
2023-01-19T21:28:46.280Z,73.81
2023-01-19T21:31:14.617Z,74.10
2023-01-19T21:33:42.943Z,73.69
2023-01-19T21:36:11.155Z,73.90
2023-01-19T21:38:39.809Z,73.59
2023-01-19T21:41:11.274Z,73.99
2023-01-19T21:43:42.068Z,73.94
2023-01-19T21:46:15.024Z,74.09
2023-01-19T21:48:43.087Z,73.98
2023-01-19T21:51:12.173Z,73.84
2023-01-19T21:53:40.518Z,73.87
2023-01-19T21:56:10.872Z,73.77
2023-01-19T21:58:39.085Z,73.87
2023-01-19T22:01:14.086Z,74.21
2023-01-19T22:03:43.661Z,74.24
2023-01-19T22:06:13.400Z,74.55
2023-01-19T22:08:42.086Z,74.68
2023-01-19T22:11:11.920Z,74.64
2023-01-19T22:13:39.996Z,74.37
2023-01-19T22:16:11.235Z,74.46
2023-01-19T22:18:41.293Z,74.47
2023-01-19T22:21:10.252Z,74.49
2023-01-19T22:23:38.717Z,74.82
2023-01-19T22:26:08.122Z,74.64
2023-01-19T22:28:36.582Z,74.52
2023-01-19T22:31:08.872Z,74.78
2023-01-19T22:33:37.397Z,74.82
2023-01-19T22:36:26.750Z,74.91
2023-01-19T22:38:57.871Z,75.16
2023-01-19T22:41:41.075Z,74.67
2023-01-19T22:44:12.666Z,74.94
2023-01-19T22:46:40.541Z,74.72
2023-01-19T22:49:10.439Z,74.54
2023-01-19T22:51:38.741Z,74.59
2023-01-19T22:54:06.902Z,74.59
2023-01-19T22:56:37.195Z,74.63
2023-01-19T22:59:06.296Z,74.67
2023-01-19T23:01:40.081Z,74.99
2023-01-19T23:04:12.103Z,75.08
2023-01-19T23:06:40.531Z,74.85
2023-01-19T23:09:11.939Z,74.82
2023-01-19T23:11:42.563Z,75.12
2023-01-19T23:14:15.618Z,74.94
2023-01-19T23:16:43.848Z,75.08
2023-01-19T23:19:12.425Z,74.88
2023-01-19T23:21:40.992Z,74.86
2023-01-19T23:24:09.568Z,74.71
2023-01-19T23:26:38.512Z,74.83
2023-01-19T23:29:09.950Z,75.00
2023-01-19T23:31:40.208Z,74.88
2023-01-19T23:34:09.646Z,74.85
2023-01-19T23:36:39.136Z,75.02
2023-01-19T23:39:19.683Z,74.84
2023-01-19T23:41:48.158Z,75.41
2023-01-19T23:44:17.447Z,75.17
2023-01-19T23:46:46.043Z,75.17
2023-01-19T23:49:13.922Z,74.99
2023-01-19T23:51:42.052Z,74.95
2023-01-19T23:54:10.102Z,74.96
2023-01-19T23:56:38.461Z,74.90
2023-01-19T23:59:14.683Z,74.84
